createdAt,value
2022-12-28T00:02:17.879Z,7.00
2022-12-28T00:04:47.604Z,6.80
2022-12-28T00:07:15.736Z,6.80
2022-12-28T00:09:43.888Z,6.80
2022-12-28T00:12:11.979Z,6.80
2022-12-28T00:14:40.068Z,7.00
2022-12-28T00:17:08.168Z,6.90
2022-12-28T00:19:36.278Z,7.30
2022-12-28T00:22:05.764Z,7.10
2022-12-28T00:24:34.811Z,7.30
2022-12-28T00:27:02.893Z,7.30
2022-12-28T00:29:30.959Z,7.60
2022-12-28T00:32:00.542Z,7.30
2022-12-28T00:34:28.707Z,7.60
2022-12-28T00:37:09.999Z,7.40
2022-12-28T00:39:43.139Z,7.60
2022-12-28T00:42:15.945Z,7.30
2022-12-28T00:44:44.021Z,7.30
2022-12-28T00:47:12.119Z,7.30
2022-12-28T00:49:40.657Z,7.10
2022-12-28T00:52:08.791Z,6.80
2022-12-28T00:54:36.923Z,6.70
2022-12-28T00:57:06.449Z,6.80
2022-12-28T00:59:34.836Z,7.00
2022-12-28T01:02:03.123Z,6.90
2022-12-28T01:04:31.352Z,6.90
2022-12-28T01:06:59.477Z,7.00
2022-12-28T01:09:27.586Z,7.10
2022-12-28T01:11:56.249Z,7.10
2022-12-28T01:14:25.723Z,7.20
2022-12-28T01:16:53.872Z,7.20
2022-12-28T01:19:23.790Z,7.40
2022-12-28T01:21:52.922Z,7.30
2022-12-28T01:24:21.229Z,7.50
2022-12-28T01:26:49.312Z,7.40
2022-12-28T01:29:18.969Z,7.30
2022-12-28T01:31:48.499Z,7.40
2022-12-28T01:34:16.647Z,7.50
2022-12-28T01:36:47.592Z,7.90
2022-12-28T01:39:15.747Z,7.70
2022-12-28T01:41:46.826Z,7.60
2022-12-28T01:44:40.761Z,7.70
2022-12-28T01:47:14.315Z,7.50
2022-12-28T01:49:48.259Z,7.50
2022-12-28T01:52:22.326Z,7.50
2022-12-28T01:54:55.092Z,7.40
2022-12-28T01:57:27.530Z,7.50
2022-12-28T02:00:00.771Z,7.60
2022-12-28T02:02:31.222Z,7.60
2022-12-28T02:05:00.298Z,7.50
2022-12-28T02:07:37.722Z,7.40
2022-12-28T02:10:41.252Z,7.40
2022-12-28T02:12:57.939Z,7.60
2022-12-28T02:15:28.647Z,7.80
2022-12-28T02:17:59.678Z,7.80
2022-12-28T02:20:36.015Z,7.70
2022-12-28T02:23:24.759Z,7.90
2022-12-28T02:26:25.395Z,8.30
2022-12-28T02:29:27.664Z,8.20
2022-12-28T02:32:04.006Z,8.10
2022-12-28T02:34:38.030Z,8.10
2022-12-28T02:37:11.781Z,8.10
2022-12-28T02:39:45.662Z,8.00
2022-12-28T02:42:14.979Z,7.80
2022-12-28T02:45:04.823Z,7.70
2022-12-28T02:47:50.137Z,7.80
2022-12-28T02:50:19.572Z,7.90
2022-12-28T02:53:13.826Z,8.00
2022-12-28T02:56:08.577Z,7.90
2022-12-28T02:59:05.226Z,7.80
2022-12-28T03:02:01.221Z,7.60
2022-12-28T03:04:41.960Z,7.70
2022-12-28T03:07:35.363Z,7.60
2022-12-28T03:10:11.926Z,7.80
2022-12-28T03:12:48.849Z,7.70
2022-12-28T03:15:29.756Z,7.40
2022-12-28T03:18:24.319Z,7.40
2022-12-28T03:21:11.900Z,7.40
2022-12-28T03:24:01.424Z,7.30
2022-12-28T03:26:51.921Z,7.30
2022-12-28T03:29:41.094Z,7.30
2022-12-28T03:32:10.298Z,7.40
2022-12-28T03:34:39.962Z,7.50
2022-12-28T03:37:13.842Z,7.40
2022-12-28T03:39:46.174Z,7.40
2022-12-28T03:42:35.603Z,7.60
2022-12-28T03:45:08.539Z,7.70
2022-12-28T03:47:40.196Z,7.70
2022-12-28T03:50:10.764Z,7.90
2022-12-28T03:52:39.568Z,7.80
2022-12-28T03:55:08.257Z,7.60
2022-12-28T03:57:36.483Z,7.50
2022-12-28T04:00:09.329Z,7.70
2022-12-28T04:02:44.145Z,7.60
2022-12-28T04:05:16.027Z,7.70
2022-12-28T04:07:45.670Z,7.80
2022-12-28T04:10:13.973Z,7.90
2022-12-28T04:12:43.097Z,7.90
2022-12-28T04:15:34.393Z,7.90
2022-12-28T04:18:02.931Z,7.90
2022-12-28T04:20:33.051Z,7.90
2022-12-28T04:23:02.303Z,8.10
2022-12-28T04:25:31.961Z,8.10
2022-12-28T04:28:00.171Z,8.40
2022-12-28T04:30:49.884Z,8.30
2022-12-28T04:33:18.817Z,8.40
2022-12-28T04:35:50.543Z,8.40
2022-12-28T04:38:19.750Z,8.40
2022-12-28T04:40:48.442Z,8.10
2022-12-28T04:43:16.652Z,8.30
2022-12-28T04:45:44.756Z,8.20
2022-12-28T04:48:12.852Z,8.30
2022-12-28T04:50:40.977Z,8.30
2022-12-28T04:53:10.443Z,8.50
2022-12-28T04:55:38.676Z,8.80
2022-12-28T04:58:06.835Z,8.50
2022-12-28T05:00:35.566Z,8.40
2022-12-28T05:03:03.833Z,8.50
2022-12-28T05:05:33.619Z,8.50
2022-12-28T05:08:02.520Z,8.60
2022-12-28T05:10:31.982Z,8.40
2022-12-28T05:13:00.108Z,8.30
2022-12-28T05:15:28.210Z,8.50
2022-12-28T05:17:56.756Z,8.60
2022-12-28T05:20:24.826Z,8.60
2022-12-28T05:22:52.940Z,8.60
2022-12-28T05:25:21.023Z,8.80
2022-12-28T05:27:50.526Z,8.70
2022-12-28T05:30:19.188Z,8.80
2022-12-28T05:32:47.403Z,8.60
2022-12-28T05:35:15.552Z,8.50
2022-12-28T05:37:43.681Z,8.50
2022-12-28T05:40:12.309Z,8.50
2022-12-28T05:42:40.451Z,8.40
2022-12-28T05:45:10.740Z,8.60
2022-12-28T05:47:38.869Z,8.40
2022-12-28T05:50:07.621Z,8.40
2022-12-28T05:52:38.607Z,8.50
2022-12-28T05:55:07.813Z,8.40
2022-12-28T05:57:36.008Z,8.50
2022-12-28T06:00:04.814Z,8.50
2022-12-28T06:02:41.212Z,8.50
2022-12-28T06:05:10.054Z,8.80
2022-12-28T06:07:38.504Z,8.60
2022-12-28T06:10:07.558Z,8.60
2022-12-28T06:12:35.727Z,8.60
2022-12-28T06:15:03.876Z,8.50
2022-12-28T06:17:31.995Z,8.60
2022-12-28T06:20:01.425Z,8.60
2022-12-28T06:22:29.623Z,8.50
2022-12-28T06:24:57.801Z,8.60
2022-12-28T06:27:25.906Z,8.70
2022-12-28T06:29:54.018Z,8.50
2022-12-28T06:32:24.276Z,8.40
2022-12-28T06:34:52.366Z,8.30
2022-12-28T06:37:21.809Z,8.10
2022-12-28T06:39:49.977Z,8.10
2022-12-28T06:42:18.055Z,8.10
2022-12-28T06:44:46.163Z,8.30
2022-12-28T06:47:14.270Z,8.30
2022-12-28T06:49:42.381Z,8.20
2022-12-28T06:52:13.513Z,8.30
2022-12-28T06:54:42.952Z,8.30
2022-12-28T06:57:11.040Z,8.30
2022-12-28T06:59:39.145Z,8.20
2022-12-28T07:02:07.764Z,8.20
2022-12-28T07:04:36.129Z,8.10
2022-12-28T07:07:04.268Z,8.30
2022-12-28T07:09:32.420Z,8.20
2022-12-28T07:12:01.918Z,8.10
2022-12-28T07:14:30.024Z,8.10
2022-12-28T07:16:58.117Z,8.30
2022-12-28T07:19:26.224Z,8.20
2022-12-28T07:21:54.398Z,8.10
2022-12-28T07:24:22.508Z,7.90
2022-12-28T07:26:50.711Z,8.20
2022-12-28T07:29:20.113Z,8.10
2022-12-28T07:31:48.251Z,8.20
2022-12-28T07:34:17.085Z,8.20
2022-12-28T07:36:45.201Z,8.20
2022-12-28T07:39:13.307Z,8.20
2022-12-28T07:41:41.430Z,8.10
2022-12-28T07:44:10.961Z,8.30
2022-12-28T07:46:40.983Z,8.50
2022-12-28T07:49:09.112Z,8.40
2022-12-28T07:51:39.316Z,8.10
2022-12-28T07:54:07.915Z,8.20
2022-12-28T07:59:05.175Z,8.70
2022-12-28T08:01:36.149Z,8.80
2022-12-28T08:04:07.727Z,8.60
2022-12-28T08:06:37.875Z,8.70
2022-12-28T08:09:07.136Z,8.70
2022-12-28T08:11:37.481Z,8.60
2022-12-28T08:14:06.560Z,8.80
2022-12-28T08:16:37.604Z,8.90
2022-12-28T08:19:08.312Z,8.80
2022-12-28T08:21:37.879Z,8.70
2022-12-28T08:24:07.441Z,8.80
2022-12-28T08:26:38.269Z,8.80
2022-12-28T08:29:08.613Z,8.90
2022-12-28T08:31:38.449Z,8.90
2022-12-28T08:34:13.471Z,9.10
2022-12-28T08:36:42.691Z,9.30
2022-12-28T08:39:11.195Z,8.90
2022-12-28T08:41:39.363Z,9.10
2022-12-28T08:44:07.890Z,9.20
2022-12-28T08:46:37.416Z,9.10
2022-12-28T08:49:07.632Z,9.10
2022-12-28T08:51:39.618Z,9.30
2022-12-28T08:54:08.962Z,9.20
2022-12-28T08:56:38.603Z,9.10
2022-12-28T08:59:07.041Z,9.00
2022-12-28T09:01:43.124Z,8.90
2022-12-28T09:04:16.215Z,8.90
2022-12-28T09:06:44.481Z,9.20
2022-12-28T09:09:14.891Z,8.90
2022-12-28T09:11:43.674Z,9.20
2022-12-28T09:14:22.073Z,9.00
2022-12-28T09:16:51.277Z,9.00
2022-12-28T09:19:20.787Z,9.00
2022-12-28T09:21:52.395Z,9.10
2022-12-28T09:24:20.773Z,9.00
2022-12-28T09:26:50.905Z,8.80
2022-12-28T09:29:19.210Z,8.90
2022-12-28T09:31:47.303Z,8.90
2022-12-28T09:37:05.297Z,8.80
2022-12-28T09:39:33.457Z,9.40
2022-12-28T09:42:05.638Z,9.30
2022-12-28T09:44:43.284Z,9.60
2022-12-28T09:47:18.528Z,9.80
2022-12-28T09:49:54.965Z,10.10
2022-12-28T09:52:30.983Z,10.10
2022-12-28T09:55:08.224Z,10.30
2022-12-28T09:57:39.177Z,10.20
2022-12-28T10:00:15.819Z,10.50
2022-12-28T10:02:50.518Z,11.20
2022-12-28T10:05:20.453Z,11.20
2022-12-28T10:07:50.166Z,11.30
2022-12-28T10:10:20.088Z,11.50
2022-12-28T10:12:51.070Z,11.70
2022-12-28T10:15:20.044Z,11.90
2022-12-28T10:17:48.199Z,11.80
2022-12-28T10:20:18.171Z,11.70
2022-12-28T10:22:50.518Z,11.90
2022-12-28T10:25:22.364Z,12.20
2022-12-28T10:27:50.799Z,12.20
2022-12-28T10:30:21.231Z,11.80
2022-12-28T10:32:51.790Z,11.70
2022-12-28T10:35:28.204Z,12.00
2022-12-28T10:38:03.798Z,11.90
2022-12-28T10:40:35.202Z,11.50
2022-12-28T10:43:10.418Z,11.20
2022-12-28T10:45:46.735Z,11.40
2022-12-28T10:48:19.628Z,11.50
2022-12-28T10:50:52.895Z,11.40
2022-12-28T10:53:27.083Z,12.00
2022-12-28T10:56:21.913Z,11.30
2022-12-28T10:58:51.507Z,11.00
2022-12-28T11:01:24.914Z,11.50
2022-12-28T11:04:03.355Z,11.40
2022-12-28T11:06:33.145Z,10.80
2022-12-28T11:09:06.559Z,10.90
2022-12-28T11:11:35.246Z,10.90
2022-12-28T11:14:10.634Z,11.10
2022-12-28T11:16:40.836Z,11.40
2022-12-28T11:19:09.339Z,11.40
2022-12-28T11:21:38.157Z,11.00
2022-12-28T11:24:08.677Z,10.80
2022-12-28T11:26:37.109Z,10.80
2022-12-28T11:29:05.577Z,10.90
2022-12-28T11:31:36.789Z,11.00
2022-12-28T11:34:07.690Z,11.30
2022-12-28T11:36:40.696Z,11.00
2022-12-28T11:39:43.141Z,10.90
2022-12-28T11:45:00.078Z,11.30
2022-12-28T11:47:33.984Z,11.20
2022-12-28T11:50:39.535Z,11.50
2022-12-28T11:53:44.574Z,11.90
2022-12-28T11:56:14.988Z,12.10
2022-12-28T11:58:48.518Z,11.70
2022-12-28T12:01:43.219Z,11.70
2022-12-28T12:04:29.003Z,11.40
2022-12-28T12:07:42.326Z,11.50
2022-12-28T12:10:41.833Z,11.60
2022-12-28T12:13:42.682Z,11.40
2022-12-28T12:16:21.577Z,11.40
2022-12-28T12:18:53.023Z,11.40
2022-12-28T12:21:33.179Z,11.30
2022-12-28T12:24:19.989Z,11.50
2022-12-28T12:26:52.163Z,11.50
2022-12-28T12:29:27.245Z,11.90
2022-12-28T12:32:01.057Z,11.70
2022-12-28T12:34:46.214Z,11.60
2022-12-28T12:37:37.105Z,11.60
2022-12-28T12:40:48.528Z,11.50
2022-12-28T12:43:32.033Z,11.30
2022-12-28T12:46:20.419Z,11.60
2022-12-28T12:49:08.312Z,11.50
2022-12-28T12:51:46.650Z,11.30
2022-12-28T12:54:29.754Z,11.40
2022-12-28T12:57:01.616Z,11.30
2022-12-28T12:59:46.533Z,11.50
2022-12-28T13:02:49.441Z,11.50
2022-12-28T13:05:20.817Z,11.40
2022-12-28T13:07:49.604Z,10.90
2022-12-28T13:10:24.722Z,11.10
2022-12-28T13:12:54.456Z,10.90
2022-12-28T13:15:22.676Z,10.90
2022-12-28T13:18:44.029Z,10.80
2022-12-28T13:20:56.407Z,10.90
2022-12-28T13:23:26.163Z,11.20
2022-12-28T13:25:56.561Z,11.50
2022-12-28T13:28:29.872Z,11.70
2022-12-28T13:31:02.350Z,11.50
2022-12-28T13:33:32.192Z,11.10
2022-12-28T13:36:18.191Z,11.20
2022-12-28T13:38:46.476Z,11.40
2022-12-28T13:41:22.316Z,11.50
2022-12-28T13:44:21.993Z,11.60
2022-12-28T13:46:55.726Z,11.70
2022-12-28T13:49:27.788Z,11.60
2022-12-28T13:51:56.537Z,11.50
2022-12-28T13:54:25.975Z,11.50
2022-12-28T13:57:20.511Z,11.50
2022-12-28T13:59:46.434Z,11.20
2022-12-28T14:02:19.074Z,11.20
2022-12-28T14:04:53.154Z,11.10
2022-12-28T14:07:25.732Z,11.00
2022-12-28T14:09:54.983Z,10.90
2022-12-28T14:12:23.715Z,11.10
2022-12-28T14:14:52.387Z,11.10
2022-12-28T14:17:21.553Z,10.90
2022-12-28T14:19:52.857Z,10.70
2022-12-28T14:22:32.231Z,10.70
2022-12-28T14:25:06.748Z,10.80
2022-12-28T14:27:38.024Z,10.70
2022-12-28T14:30:09.651Z,10.80
2022-12-28T14:32:42.876Z,10.80
2022-12-28T14:35:20.836Z,10.70
2022-12-28T14:37:54.571Z,10.90
2022-12-28T14:40:29.811Z,11.00
2022-12-28T14:42:58.954Z,10.90
2022-12-28T14:46:13.104Z,10.80
2022-12-28T14:48:36.115Z,11.00
2022-12-28T14:51:24.369Z,11.00
2022-12-28T14:54:16.772Z,10.90
2022-12-28T14:56:47.682Z,11.10
2022-12-28T14:59:21.962Z,11.20
2022-12-28T15:01:50.242Z,11.10
2022-12-28T15:04:29.930Z,11.00
2022-12-28T15:06:59.979Z,11.00
2022-12-28T15:09:28.090Z,11.00
2022-12-28T15:12:13.365Z,10.90
2022-12-28T15:14:41.927Z,11.00
2022-12-28T15:17:11.539Z,11.00
2022-12-28T15:19:43.278Z,11.00
2022-12-28T15:22:13.501Z,11.20
2022-12-28T15:24:45.321Z,11.10
2022-12-28T15:27:13.848Z,10.90
2022-12-28T15:32:30.184Z,11.10
2022-12-28T15:34:58.727Z,11.20
2022-12-28T15:37:28.405Z,11.30
2022-12-28T15:39:56.594Z,11.30
2022-12-28T15:42:24.683Z,11.40
2022-12-28T15:44:55.781Z,11.40
2022-12-28T15:47:24.169Z,11.30
2022-12-28T15:49:52.414Z,11.00
2022-12-28T15:52:20.560Z,11.20
2022-12-28T15:54:50.031Z,10.90
2022-12-28T15:57:18.158Z,10.80
2022-12-28T15:59:47.014Z,10.80
2022-12-28T16:02:15.334Z,10.80
2022-12-28T16:04:43.842Z,11.00
2022-12-28T16:07:12.418Z,11.00
2022-12-28T16:09:40.656Z,11.10
2022-12-28T16:12:10.254Z,11.00
2022-12-28T16:14:38.401Z,10.90
2022-12-28T16:17:06.495Z,10.80
2022-12-28T16:19:34.698Z,10.80
2022-12-28T16:22:02.783Z,10.80
2022-12-28T16:24:30.919Z,10.90
2022-12-28T16:26:59.084Z,10.90
2022-12-28T16:29:28.671Z,10.90
2022-12-28T16:31:59.132Z,10.80
2022-12-28T16:34:28.206Z,10.80
2022-12-28T16:36:59.311Z,11.00
2022-12-28T16:39:29.791Z,10.80
2022-12-28T16:41:58.429Z,10.90
2022-12-28T16:44:29.605Z,10.80
2022-12-28T16:46:59.717Z,10.70
2022-12-28T16:49:29.582Z,10.70
2022-12-28T16:51:58.029Z,10.80
2022-12-28T16:54:27.736Z,11.10
2022-12-28T16:56:56.092Z,10.80
2022-12-28T16:59:25.668Z,10.80
2022-12-28T17:01:56.968Z,10.80
2022-12-28T17:04:25.330Z,10.80
2022-12-28T17:06:54.135Z,10.90
2022-12-28T17:09:22.670Z,11.00
2022-12-28T17:11:51.605Z,11.20
2022-12-28T17:14:36.503Z,11.10
2022-12-28T17:17:07.843Z,11.30
2022-12-28T17:19:36.381Z,11.00
2022-12-28T17:22:05.038Z,10.80
2022-12-28T17:24:33.236Z,10.80
2022-12-28T17:27:07.143Z,10.80
2022-12-28T17:29:37.096Z,10.90
2022-12-28T17:32:07.729Z,10.80
2022-12-28T17:34:36.103Z,10.90
2022-12-28T17:37:07.038Z,10.80
2022-12-28T17:39:40.273Z,10.80
2022-12-28T17:42:09.638Z,10.80
2022-12-28T17:44:37.705Z,10.90
2022-12-28T17:47:07.304Z,11.10
2022-12-28T17:49:35.593Z,11.00
2022-12-28T17:52:03.756Z,11.00
2022-12-28T17:54:31.931Z,11.20
2022-12-28T17:57:00.113Z,11.00
2022-12-28T17:59:28.355Z,11.00
2022-12-28T18:01:56.902Z,11.00
2022-12-28T18:04:26.511Z,11.10
2022-12-28T18:06:54.611Z,11.00
2022-12-28T18:09:27.639Z,10.90
2022-12-28T18:11:56.624Z,10.90
2022-12-28T18:14:24.730Z,11.00
2022-12-28T18:16:52.854Z,11.10
2022-12-28T18:19:21.645Z,11.10
2022-12-28T18:21:51.091Z,11.20
2022-12-28T18:24:21.024Z,11.10
2022-12-28T18:26:49.767Z,11.10
2022-12-28T18:29:18.231Z,11.10
2022-12-28T18:31:46.563Z,11.20
2022-12-28T18:34:14.852Z,11.20
2022-12-28T18:36:43.528Z,11.20
2022-12-28T18:39:13.255Z,11.10
2022-12-28T18:41:41.322Z,11.10
2022-12-28T18:44:10.358Z,10.90
2022-12-28T18:46:38.590Z,10.90
2022-12-28T18:49:06.742Z,11.00
2022-12-28T18:51:34.933Z,11.00
2022-12-28T18:54:03.020Z,11.00
2022-12-28T18:56:32.509Z,10.90
2022-12-28T18:59:00.750Z,11.00
2022-12-28T19:02:05.394Z,10.70
2022-12-28T19:04:18.748Z,10.60
2022-12-28T19:06:47.432Z,10.70
2022-12-28T19:09:15.798Z,10.70
2022-12-28T19:11:45.955Z,10.80
2022-12-28T19:14:16.625Z,10.80
2022-12-28T19:16:45.100Z,10.80
2022-12-28T19:19:13.649Z,10.90
2022-12-28T19:21:43.175Z,10.90
2022-12-28T19:24:14.531Z,10.70
2022-12-28T19:26:43.088Z,10.70
2022-12-28T19:29:13.895Z,10.70
2022-12-28T19:31:42.059Z,10.60
2022-12-28T19:34:10.297Z,10.80
2022-12-28T19:36:38.529Z,10.80
2022-12-28T19:39:06.684Z,10.70
2022-12-28T19:41:35.703Z,10.70
2022-12-28T19:44:03.875Z,10.80
2022-12-28T19:46:33.910Z,10.60
2022-12-28T19:49:03.885Z,10.80
2022-12-28T19:51:33.332Z,11.00
2022-12-28T19:54:01.590Z,10.90
2022-12-28T19:56:30.038Z,10.90
2022-12-28T19:59:05.408Z,10.80
2022-12-28T20:01:38.318Z,10.80
2022-12-28T20:04:13.411Z,10.80
2022-12-28T20:06:43.274Z,11.00
2022-12-28T20:09:12.226Z,11.10
2022-12-28T20:11:40.781Z,11.20
2022-12-28T20:14:11.683Z,11.20
2022-12-28T20:16:43.059Z,11.30
2022-12-28T20:19:12.596Z,11.20
2022-12-28T20:21:42.400Z,11.30
2022-12-28T20:24:12.805Z,11.40
2022-12-28T20:26:41.000Z,11.40
2022-12-28T20:29:09.155Z,11.40
2022-12-28T20:31:37.365Z,11.40
2022-12-28T20:34:06.822Z,11.50
2022-12-28T20:36:35.260Z,11.50
2022-12-28T20:39:03.404Z,11.40
2022-12-28T20:41:50.206Z,11.50
2022-12-28T20:44:23.856Z,11.60
2022-12-28T20:46:52.289Z,11.60
2022-12-28T20:49:22.673Z,11.60
2022-12-28T20:51:51.241Z,11.50
2022-12-28T20:54:20.280Z,11.50
2022-12-28T20:56:54.370Z,11.60
2022-12-28T20:59:24.747Z,11.70
2022-12-28T21:01:53.459Z,11.60
2022-12-28T21:04:24.528Z,11.70
2022-12-28T21:06:53.342Z,11.70
2022-12-28T21:09:21.498Z,11.60
2022-12-28T21:11:49.604Z,11.70
2022-12-28T21:14:17.718Z,11.70
2022-12-28T21:16:45.885Z,11.60
2022-12-28T21:19:14.150Z,11.60
2022-12-28T21:21:43.766Z,11.60
2022-12-28T21:24:11.813Z,11.80
2022-12-28T21:26:39.911Z,11.80
2022-12-28T21:29:08.087Z,11.80
2022-12-28T21:31:36.550Z,11.70
2022-12-28T21:34:04.645Z,11.80
2022-12-28T21:36:32.766Z,11.80
2022-12-28T21:39:02.211Z,11.80
2022-12-28T21:41:47.940Z,11.70
2022-12-28T21:44:19.425Z,11.60
2022-12-28T21:46:49.441Z,11.60
2022-12-28T21:49:17.929Z,11.50
2022-12-28T21:51:46.572Z,11.50
2022-12-28T21:54:18.264Z,11.60
2022-12-28T21:56:51.248Z,11.70
2022-12-28T21:59:19.908Z,11.80
2022-12-28T22:02:05.450Z,12.00
2022-12-28T22:04:54.421Z,11.90
2022-12-28T22:07:26.778Z,11.80
2022-12-28T22:10:13.796Z,11.80
2022-12-28T22:12:41.924Z,12.00
2022-12-28T22:15:30.023Z,11.80
2022-12-28T22:18:00.155Z,11.80
2022-12-28T22:20:29.941Z,11.80
2022-12-28T22:23:01.152Z,11.80
2022-12-28T22:25:31.675Z,11.90
2022-12-28T22:28:00.333Z,12.00
2022-12-28T22:30:28.944Z,11.90
2022-12-28T22:32:57.224Z,11.90
2022-12-28T22:35:25.459Z,11.90
2022-12-28T22:37:53.755Z,11.90
2022-12-28T22:40:22.214Z,11.80
2022-12-28T22:42:51.827Z,12.10
2022-12-28T22:45:22.146Z,12.20
2022-12-28T22:47:52.796Z,12.10
2022-12-28T22:50:20.938Z,12.10
2022-12-28T22:52:49.024Z,12.00
2022-12-28T22:55:17.242Z,12.00
2022-12-28T22:57:45.593Z,12.00
2022-12-28T23:00:16.391Z,12.10
2022-12-28T23:02:44.650Z,11.80
2022-12-28T23:05:12.984Z,12.00
2022-12-28T23:07:41.091Z,11.80
2022-12-28T23:10:10.591Z,11.90
2022-12-28T23:12:38.956Z,12.10
2022-12-28T23:15:16.435Z,12.10
2022-12-28T23:17:47.680Z,12.00
2022-12-28T23:20:34.168Z,12.20
2022-12-28T23:23:19.630Z,12.10
2022-12-28T23:26:04.998Z,12.10
2022-12-28T23:28:36.132Z,12.20
2022-12-28T23:31:05.043Z,12.10
2022-12-28T23:33:36.669Z,11.90
2022-12-28T23:36:05.614Z,12.10
2022-12-28T23:38:34.371Z,12.20
2022-12-28T23:41:24.285Z,12.00
2022-12-28T23:43:52.365Z,12.10
2022-12-28T23:46:20.638Z,12.20
2022-12-28T23:48:50.154Z,12.20
2022-12-28T23:51:18.232Z,12.10
2022-12-28T23:53:46.410Z,12.00
2022-12-28T23:56:14.549Z,12.10
2022-12-28T23:58:42.687Z,12.00
